sensor_id;sensor_type;location;lat;lon;timestamp;pressure;altitude;pressure_sealevel;temperature;humidity
3544;BME280;1786;52.870;9.578;2022-10-03T00:00:18;101190.16;;;24.39;51.92
3544;BME280;1786;52.870;9.578;2022-10-03T00:08:48;101206.06;;;23.60;53.63
3544;BME280;1786;52.870;9.578;2022-10-03T00:11:29;101203.03;;;23.71;53.44
3544;BME280;1786;52.870;9.578;2022-10-03T00:25:12;101208.75;;;24.26;51.84
3544;BME280;1786;52.870;9.578;2022-10-03T00:27:46;101216.16;;;24.40;51.84
3544;BME280;1786;52.870;9.578;2022-10-03T00:30:20;101219.53;;;23.68;53.04
3544;BME280;1786;52.870;9.578;2022-10-03T00:55:25;101237.81;;;23.74;53.87
3544;BME280;1786;52.870;9.578;2022-10-03T01:00:23;101234.41;;;23.81;54.00
3544;BME280;1786;52.870;9.578;2022-10-03T01:05:28;101245.19;;;23.64;53.93
3544;BME280;1786;52.870;9.578;2022-10-03T01:18:55;101248.09;;;24.12;52.72
3544;BME280;1786;52.870;9.578;2022-10-03T01:21:47;101249.44;;;24.32;51.91
3544;BME280;1786;52.870;9.578;2022-10-03T01:27:38;101254.00;;;24.07;53.33
3544;BME280;1786;52.870;9.578;2022-10-03T01:30:37;101259.56;;;24.22;52.49
3544;BME280;1786;52.870;9.578;2022-10-03T01:33:10;101259.72;;;24.21;52.85
3544;BME280;1786;52.870;9.578;2022-10-03T01:35:58;101259.53;;;24.38;52.26
3544;BME280;1786;52.870;9.578;2022-10-03T01:38:42;101265.25;;;23.70;53.53
3544;BME280;1786;52.870;9.578;2022-10-03T01:43:54;101262.59;;;24.11;52.72
3544;BME280;1786;52.870;9.578;2022-10-03T01:47:26;101266.50;;;24.25;52.22
3544;BME280;1786;52.870;9.578;2022-10-03T01:49:41;101271.03;;;23.75;53.92
3544;BME280;1786;52.870;9.578;2022-10-03T01:52:37;101270.38;;;23.89;53.48
3544;BME280;1786;52.870;9.578;2022-10-03T01:55:44;101265.47;;;24.26;52.42
3544;BME280;1786;52.870;9.578;2022-10-03T01:58:26;101274.25;;;24.28;52.43
3544;BME280;1786;52.870;9.578;2022-10-03T02:01:11;101281.16;;;23.97;53.10
3544;BME280;1786;52.870;9.578;2022-10-03T02:03:50;101278.13;;;24.01;52.96
3544;BME280;1786;52.870;9.578;2022-10-03T02:06:23;101282.53;;;24.34;52.22
3544;BME280;1786;52.870;9.578;2022-10-03T02:09:10;101276.63;;;24.23;52.17
3544;BME280;1786;52.870;9.578;2022-10-03T02:14:27;101288.41;;;23.81;52.77
3544;BME280;1786;52.870;9.578;2022-10-03T02:19:59;101292.47;;;23.77;52.77
3544;BME280;1786;52.870;9.578;2022-10-03T02:22:37;101296.41;;;23.56;53.23
3544;BME280;1786;52.870;9.578;2022-10-03T02:25:48;101300.47;;;23.52;53.26
3544;BME280;1786;52.870;9.578;2022-10-03T02:37:10;101308.84;;;23.41;53.67
3544;BME280;1786;52.870;9.578;2022-10-03T02:42:30;101306.19;;;23.06;54.20
3544;BME280;1786;52.870;9.578;2022-10-03T02:48:21;101324.91;;;23.50;53.20
3544;BME280;1786;52.870;9.578;2022-10-03T02:59:55;101325.44;;;23.62;53.09
3544;BME280;1786;52.870;9.578;2022-10-03T03:08:27;101325.06;;;24.00;52.07
3544;BME280;1786;52.870;9.578;2022-10-03T03:19:43;101351.56;;;24.21;51.65
3544;BME280;1786;52.870;9.578;2022-10-03T03:28:06;101344.72;;;23.33;52.86
3544;BME280;1786;52.870;9.578;2022-10-03T03:30:46;101343.25;;;23.39;52.60
3544;BME280;1786;52.870;9.578;2022-10-03T03:33:27;101348.00;;;23.53;52.53
3544;BME280;1786;52.870;9.578;2022-10-03T03:36:04;101349.41;;;23.65;52.69
3544;BME280;1786;52.870;9.578;2022-10-03T03:38:51;101355.72;;;23.82;52.50
3544;BME280;1786;52.870;9.578;2022-10-03T03:44:42;101341.94;;;24.02;51.80
3544;BME280;1786;52.870;9.578;2022-10-03T03:47:51;101338.50;;;23.83;51.89
3544;BME280;1786;52.870;9.578;2022-10-03T03:56:07;101345.63;;;24.09;51.39
3544;BME280;1786;52.870;9.578;2022-10-03T03:59:05;101347.97;;;23.79;51.84
3544;BME280;1786;52.870;9.578;2022-10-03T04:19:08;101354.22;;;23.88;52.65
3544;BME280;1786;52.870;9.578;2022-10-03T04:24:42;101373.44;;;23.77;52.72
3544;BME280;1786;52.870;9.578;2022-10-03T04:27:24;101374.84;;;23.54;53.40
3544;BME280;1786;52.870;9.578;2022-10-03T04:30:10;101365.84;;;23.46;53.10
3544;BME280;1786;52.870;9.578;2022-10-03T04:36:07;101371.53;;;23.69;52.29
3544;BME280;1786;52.870;9.578;2022-10-03T04:39:03;101380.22;;;23.54;52.79
3544;BME280;1786;52.870;9.578;2022-10-03T04:47:43;101378.16;;;23.48;52.79
3544;BME280;1786;52.870;9.578;2022-10-03T04:55:52;101390.63;;;23.84;52.31
3544;BME280;1786;52.870;9.578;2022-10-03T04:58:36;101387.72;;;23.69;52.85
3544;BME280;1786;52.870;9.578;2022-10-03T05:01:19;101391.66;;;23.91;52.27
3544;BME280;1786;52.870;9.578;2022-10-03T05:09:36;101401.31;;;23.59;52.97
3544;BME280;1786;52.870;9.578;2022-10-03T05:17:21;101399.88;;;23.73;52.66
3544;BME280;1786;52.870;9.578;2022-10-03T05:20:09;101407.16;;;23.89;52.21
3544;BME280;1786;52.870;9.578;2022-10-03T05:25:36;101402.63;;;23.21;53.34
3544;BME280;1786;52.870;9.578;2022-10-03T05:28:29;101404.44;;;23.72;52.47
3544;BME280;1786;52.870;9.578;2022-10-03T05:33:51;101411.22;;;23.85;52.03
3544;BME280;1786;52.870;9.578;2022-10-03T05:42:13;101424.75;;;23.93;52.46
3544;BME280;1786;52.870;9.578;2022-10-03T05:47:50;101428.50;;;24.16;52.26
3544;BME280;1786;52.870;9.578;2022-10-03T05:50:48;101432.56;;;24.12;52.18
3544;BME280;1786;52.870;9.578;2022-10-03T05:59:21;101436.25;;;24.11;53.24
3544;BME280;1786;52.870;9.578;2022-10-03T06:08:16;101448.31;;;25.32;49.63
3544;BME280;1786;52.870;9.578;2022-10-03T06:19:49;101457.31;;;24.67;51.77
3544;BME280;1786;52.870;9.578;2022-10-03T06:22:39;101454.09;;;25.04;51.04
3544;BME280;1786;52.870;9.578;2022-10-03T06:25:26;101460.34;;;24.96;53.10
3544;BME280;1786;52.870;9.578;2022-10-03T06:28:27;101464.50;;;26.58;49.38
3544;BME280;1786;52.870;9.578;2022-10-03T06:31:19;101468.09;;;27.49;48.10
3544;BME280;1786;52.870;9.578;2022-10-03T06:34:15;101475.28;;;28.53;47.41
3544;BME280;1786;52.870;9.578;2022-10-03T06:40:08;101493.34;;;31.42;42.49
3544;BME280;1786;52.870;9.578;2022-10-03T06:51:17;101505.63;;;35.43;37.52
3544;BME280;1786;52.870;9.578;2022-10-03T06:59:59;101515.78;;;37.93;33.61
3544;BME280;1786;52.870;9.578;2022-10-03T07:05:57;101515.59;;;38.75;33.09
3544;BME280;1786;52.870;9.578;2022-10-03T07:34:09;101541.25;;;42.53;29.28
3544;BME280;1786;52.870;9.578;2022-10-03T07:37:12;101543.22;;;43.16;29.33
3544;BME280;1786;52.870;9.578;2022-10-03T07:40:21;101536.41;;;43.56;29.30
3544;BME280;1786;52.870;9.578;2022-10-03T07:49:12;101540.84;;;42.70;29.90
3544;BME280;1786;52.870;9.578;2022-10-03T08:07:27;101534.41;;;38.73;33.26
3544;BME280;1786;52.870;9.578;2022-10-03T08:12:45;101533.28;;;37.37;33.71
3544;BME280;1786;52.870;9.578;2022-10-03T08:15:26;101535.28;;;36.17;35.51
3544;BME280;1786;52.870;9.578;2022-10-03T08:20:52;101539.16;;;36.33;36.53
3544;BME280;1786;52.870;9.578;2022-10-03T08:23:40;101540.44;;;37.38;34.90
3544;BME280;1786;52.870;9.578;2022-10-03T08:29:06;101558.03;;;39.29;32.60
3544;BME280;1786;52.870;9.578;2022-10-03T08:40:30;101556.22;;;32.21;40.57
3544;BME280;1786;52.870;9.578;2022-10-03T08:53:53;101546.50;;;29.27;46.20
3544;BME280;1786;52.870;9.578;2022-10-03T08:56:34;101541.56;;;28.37;47.52
3544;BME280;1786;52.870;9.578;2022-10-03T08:59:24;101536.13;;;28.95;47.72
3544;BME280;1786;52.870;9.578;2022-10-03T09:11:12;101550.06;;;30.26;45.29
3544;BME280;1786;52.870;9.578;2022-10-03T09:19:40;101565.53;;;32.13;42.67
3544;BME280;1786;52.870;9.578;2022-10-03T09:28:25;101565.94;;;35.85;37.66
3544;BME280;1786;52.870;9.578;2022-10-03T09:36:10;101568.97;;;37.83;34.89
3544;BME280;1786;52.870;9.578;2022-10-03T10:02:27;101559.88;;;34.71;38.52
3544;BME280;1786;52.870;9.578;2022-10-03T10:05:23;101558.94;;;33.91;38.97
3544;BME280;1786;52.870;9.578;2022-10-03T10:08:07;101554.28;;;33.55;39.81
3544;BME280;1786;52.870;9.578;2022-10-03T10:25:32;101530.75;;;31.02;41.86
3544;BME280;1786;52.870;9.578;2022-10-03T10:28:25;101541.91;;;29.91;44.32
3544;BME280;1786;52.870;9.578;2022-10-03T10:36:43;101536.09;;;30.49;43.22
3544;BME280;1786;52.870;9.578;2022-10-03T10:39:33;101531.72;;;30.54;44.10
3544;BME280;1786;52.870;9.578;2022-10-03T10:50:23;101540.31;;;30.58;43.33
3544;BME280;1786;52.870;9.578;2022-10-03T11:24:24;101518.56;;;30.98;42.65
3544;BME280;1786;52.870;9.578;2022-10-03T11:30:21;101510.34;;;30.65;42.22
3544;BME280;1786;52.870;9.578;2022-10-03T11:33:38;101506.75;;;30.57;42.37
3544;BME280;1786;52.870;9.578;2022-10-03T11:41:50;101504.75;;;29.76;44.49
3544;BME280;1786;52.870;9.578;2022-10-03T11:44:23;101502.66;;;29.79;44.41
3544;BME280;1786;52.870;9.578;2022-10-03T11:55:37;101501.75;;;31.47;41.95
3544;BME280;1786;52.870;9.578;2022-10-03T11:58:22;101503.00;;;31.52;42.56
3544;BME280;1786;52.870;9.578;2022-10-03T12:01:17;101502.56;;;31.68;40.51
3544;BME280;1786;52.870;9.578;2022-10-03T12:04:10;101506.31;;;31.67;41.48
3544;BME280;1786;52.870;9.578;2022-10-03T12:06:59;101501.56;;;31.02;41.97
3544;BME280;1786;52.870;9.578;2022-10-03T12:10:09;101502.59;;;30.88;42.00
3544;BME280;1786;52.870;9.578;2022-10-03T12:12:44;101498.63;;;31.04;42.03
3544;BME280;1786;52.870;9.578;2022-10-03T12:18:31;101495.06;;;31.10;42.77
3544;BME280;1786;52.870;9.578;2022-10-03T12:21:11;101491.84;;;30.73;42.13
3544;BME280;1786;52.870;9.578;2022-10-03T12:24:01;101501.34;;;30.84;42.05
3544;BME280;1786;52.870;9.578;2022-10-03T12:26:58;101500.91;;;31.27;41.93
3544;BME280;1786;52.870;9.578;2022-10-03T12:29:32;101506.59;;;31.19;42.71
3544;BME280;1786;52.870;9.578;2022-10-03T12:34:41;101512.69;;;31.41;41.63
3544;BME280;1786;52.870;9.578;2022-10-03T12:37:28;101499.22;;;30.73;41.79
3544;BME280;1786;52.870;9.578;2022-10-03T12:40:22;101499.31;;;30.31;43.24
3544;BME280;1786;52.870;9.578;2022-10-03T12:45:33;101500.06;;;30.80;43.41
3544;BME280;1786;52.870;9.578;2022-10-03T12:48:21;101502.56;;;31.35;43.08
3544;BME280;1786;52.870;9.578;2022-10-03T12:53:43;101505.47;;;31.73;41.84
3544;BME280;1786;52.870;9.578;2022-10-03T12:56:16;101510.94;;;32.31;41.14
3544;BME280;1786;52.870;9.578;2022-10-03T12:58:53;101511.09;;;32.37;41.08
3544;BME280;1786;52.870;9.578;2022-10-03T13:01:48;101514.22;;;32.02;40.91
3544;BME280;1786;52.870;9.578;2022-10-03T13:07:48;101504.16;;;31.96;41.58
3544;BME280;1786;52.870;9.578;2022-10-03T13:12:47;101504.66;;;30.59;42.98
3544;BME280;1786;52.870;9.578;2022-10-03T13:17:53;101504.03;;;30.57;42.65
3544;BME280;1786;52.870;9.578;2022-10-03T13:20:34;101504.25;;;31.29;41.47
3544;BME280;1786;52.870;9.578;2022-10-03T13:23:18;101502.81;;;31.33;41.79
3544;BME280;1786;52.870;9.578;2022-10-03T13:26:10;101493.59;;;31.08;41.17
3544;BME280;1786;52.870;9.578;2022-10-03T13:34:27;101492.00;;;30.38;41.54
3544;BME280;1786;52.870;9.578;2022-10-03T13:37:13;101502.63;;;29.72;42.82
3544;BME280;1786;52.870;9.578;2022-10-03T13:39:51;101504.41;;;29.93;43.48
3544;BME280;1786;52.870;9.578;2022-10-03T13:42:29;101500.59;;;30.35;43.46
3544;BME280;1786;52.870;9.578;2022-10-03T13:45:02;101493.72;;;29.98;43.82
3544;BME280;1786;52.870;9.578;2022-10-03T13:47:54;101492.25;;;29.54;44.01
3544;BME280;1786;52.870;9.578;2022-10-03T13:53:04;101492.78;;;29.43;44.15
3544;BME280;1786;52.870;9.578;2022-10-03T13:55:40;101493.31;;;30.01;43.93
3544;BME280;1786;52.870;9.578;2022-10-03T13:58:26;101489.16;;;30.05;43.39
3544;BME280;1786;52.870;9.578;2022-10-03T14:07:03;101477.78;;;30.63;43.19
3544;BME280;1786;52.870;9.578;2022-10-03T14:13:19;101486.47;;;30.18;43.82
3544;BME280;1786;52.870;9.578;2022-10-03T14:18:38;101489.66;;;29.74;43.91
3544;BME280;1786;52.870;9.578;2022-10-03T14:32:30;101482.00;;;29.56;44.64
3544;BME280;1786;52.870;9.578;2022-10-03T14:35:32;101479.94;;;29.65;43.42
3544;BME280;1786;52.870;9.578;2022-10-03T14:38:29;101477.75;;;29.82;44.49
3544;BME280;1786;52.870;9.578;2022-10-03T14:41:20;101474.38;;;30.28;43.98
3544;BME280;1786;52.870;9.578;2022-10-03T14:43:57;101468.25;;;30.19;43.46
3544;BME280;1786;52.870;9.578;2022-10-03T14:46:33;101476.59;;;30.11;44.59
3544;BME280;1786;52.870;9.578;2022-10-03T14:49:02;101473.78;;;29.91;44.39
3544;BME280;1786;52.870;9.578;2022-10-03T14:52:04;101475.44;;;29.16;44.79
3544;BME280;1786;52.870;9.578;2022-10-03T14:54:34;101483.72;;;29.36;45.37
3544;BME280;1786;52.870;9.578;2022-10-03T14:57:35;101471.16;;;29.34;45.43
3544;BME280;1786;52.870;9.578;2022-10-03T15:00:43;101479.13;;;29.71;45.32
3544;BME280;1786;52.870;9.578;2022-10-03T15:03:19;101471.97;;;30.11;44.71
3544;BME280;1786;52.870;9.578;2022-10-03T15:05:56;101472.22;;;30.16;43.90
3544;BME280;1786;52.870;9.578;2022-10-03T15:08:29;101472.28;;;30.30;44.48
3544;BME280;1786;52.870;9.578;2022-10-03T15:10:59;101472.50;;;30.35;43.89
3544;BME280;1786;52.870;9.578;2022-10-03T15:13:26;101477.78;;;30.56;44.33
3544;BME280;1786;52.870;9.578;2022-10-03T15:15:55;101472.34;;;30.70;43.24
3544;BME280;1786;52.870;9.578;2022-10-03T15:18:23;101476.56;;;30.99;43.67
3544;BME280;1786;52.870;9.578;2022-10-03T15:20:52;101479.28;;;31.19;43.70
3544;BME280;1786;52.870;9.578;2022-10-03T15:23:25;101483.53;;;30.95;43.79
3544;BME280;1786;52.870;9.578;2022-10-03T15:25:55;101485.38;;;31.21;43.13
3544;BME280;1786;52.870;9.578;2022-10-03T15:28:29;101485.34;;;31.34;42.87
3544;BME280;1786;52.870;9.578;2022-10-03T15:31:25;101482.84;;;30.99;43.85
3544;BME280;1786;52.870;9.578;2022-10-03T15:33:55;101484.75;;;31.19;43.37
3544;BME280;1786;52.870;9.578;2022-10-03T15:36:25;101482.03;;;31.05;43.36
3544;BME280;1786;52.870;9.578;2022-10-03T15:38:58;101472.13;;;30.71;43.75
3544;BME280;1786;52.870;9.578;2022-10-03T15:41:33;101469.84;;;31.01;43.40
3544;BME280;1786;52.870;9.578;2022-10-03T15:44:06;101469.00;;;31.14;43.46
3544;BME280;1786;52.870;9.578;2022-10-03T15:46:43;101470.03;;;31.33;43.35
3544;BME280;1786;52.870;9.578;2022-10-03T15:49:19;101459.75;;;31.09;43.70
3544;BME280;1786;52.870;9.578;2022-10-03T15:51:51;101465.44;;;31.40;43.45
3544;BME280;1786;52.870;9.578;2022-10-03T15:54:22;101463.94;;;31.31;43.24
3544;BME280;1786;52.870;9.578;2022-10-03T15:56:55;101453.47;;;31.15;44.08
3544;BME280;1786;52.870;9.578;2022-10-03T15:59:31;101453.44;;;31.28;43.69
3544;BME280;1786;52.870;9.578;2022-10-03T16:02:08;101453.22;;;31.43;42.93
3544;BME280;1786;52.870;9.578;2022-10-03T16:04:42;101454.69;;;31.19;43.14
3544;BME280;1786;52.870;9.578;2022-10-03T16:07:43;101459.94;;;31.34;43.23
3544;BME280;1786;52.870;9.578;2022-10-03T16:10:18;101456.44;;;31.00;44.03
3544;BME280;1786;52.870;9.578;2022-10-03T16:13:04;101460.81;;;31.21;43.70
3544;BME280;1786;52.870;9.578;2022-10-03T16:15:56;101453.03;;;31.18;43.30
3544;BME280;1786;52.870;9.578;2022-10-03T16:18:50;101446.34;;;31.00;43.64
3544;BME280;1786;52.870;9.578;2022-10-03T16:24:03;101452.84;;;31.13;43.97
3544;BME280;1786;52.870;9.578;2022-10-03T16:26:47;101446.72;;;31.24;43.11
3544;BME280;1786;52.870;9.578;2022-10-03T16:29:19;101443.34;;;31.22;43.87
3544;BME280;1786;52.870;9.578;2022-10-03T16:31:55;101443.59;;;31.00;43.53
3544;BME280;1786;52.870;9.578;2022-10-03T16:34:26;101450.94;;;30.80;43.84
3544;BME280;1786;52.870;9.578;2022-10-03T16:36:57;101438.38;;;30.92;43.97
3544;BME280;1786;52.870;9.578;2022-10-03T16:41:58;101441.25;;;30.64;43.78
3544;BME280;1786;52.870;9.578;2022-10-03T16:44:46;101442.53;;;30.75;43.92
3544;BME280;1786;52.870;9.578;2022-10-03T16:47:15;101446.31;;;30.60;43.85
3544;BME280;1786;52.870;9.578;2022-10-03T16:49:50;101445.47;;;30.53;43.62
3544;BME280;1786;52.870;9.578;2022-10-03T16:52:39;101449.22;;;30.46;44.18
3544;BME280;1786;52.870;9.578;2022-10-03T16:57:46;101447.72;;;30.36;43.51
3544;BME280;1786;52.870;9.578;2022-10-03T17:00:20;101451.94;;;30.39;44.19
3544;BME280;1786;52.870;9.578;2022-10-03T17:02:48;101451.25;;;30.17;44.09
3544;BME280;1786;52.870;9.578;2022-10-03T17:05:16;101455.44;;;30.19;44.04
3544;BME280;1786;52.870;9.578;2022-10-03T17:07:46;101451.94;;;29.77;45.23
3544;BME280;1786;52.870;9.578;2022-10-03T17:10:27;101447.78;;;29.88;44.43
3544;BME280;1786;52.870;9.578;2022-10-03T17:12:57;101445.28;;;29.87;45.16
3544;BME280;1786;52.870;9.578;2022-10-03T17:15:33;101449.06;;;29.92;44.45
3544;BME280;1786;52.870;9.578;2022-10-03T17:18:07;101453.59;;;29.79;44.67
3544;BME280;1786;52.870;9.578;2022-10-03T17:20:49;101436.84;;;29.75;44.88
3544;BME280;1786;52.870;9.578;2022-10-03T17:25:57;101445.28;;;29.87;44.94
3544;BME280;1786;52.870;9.578;2022-10-03T17:28:36;101446.06;;;29.81;44.53
3544;BME280;1786;52.870;9.578;2022-10-03T17:31:13;101442.75;;;29.85;44.62
3544;BME280;1786;52.870;9.578;2022-10-03T17:33:52;101453.22;;;29.82;44.52
3544;BME280;1786;52.870;9.578;2022-10-03T17:36:57;101456.75;;;29.75;44.59
3544;BME280;1786;52.870;9.578;2022-10-03T17:42:42;101460.53;;;29.74;44.94
3544;BME280;1786;52.870;9.578;2022-10-03T17:45:22;101457.34;;;29.71;44.54
3544;BME280;1786;52.870;9.578;2022-10-03T17:50:39;101460.56;;;29.46;44.62
3544;BME280;1786;52.870;9.578;2022-10-03T17:53:20;101468.97;;;29.51;44.88
3544;BME280;1786;52.870;9.578;2022-10-03T17:55:54;101462.94;;;29.28;45.16
3544;BME280;1786;52.870;9.578;2022-10-03T17:58:24;101460.75;;;29.45;44.76
3544;BME280;1786;52.870;9.578;2022-10-03T18:01:26;101463.88;;;29.42;45.12
3544;BME280;1786;52.870;9.578;2022-10-03T18:04:00;101459.22;;;29.36;45.52
3544;BME280;1786;52.870;9.578;2022-10-03T18:08:55;101462.50;;;29.24;45.61
3544;BME280;1786;52.870;9.578;2022-10-03T18:11:24;101460.19;;;29.00;45.56
3544;BME280;1786;52.870;9.578;2022-10-03T18:14:13;101463.47;;;28.67;45.99
3544;BME280;1786;52.870;9.578;2022-10-03T18:19:48;101462.63;;;28.88;46.22
3544;BME280;1786;52.870;9.578;2022-10-03T18:22:20;101459.81;;;28.53;46.30
3544;BME280;1786;52.870;9.578;2022-10-03T18:27:44;101462.31;;;28.55;46.64
3544;BME280;1786;52.870;9.578;2022-10-03T18:30:26;101465.19;;;28.68;46.51
3544;BME280;1786;52.870;9.578;2022-10-03T18:32:59;101468.78;;;28.75;45.73
3544;BME280;1786;52.870;9.578;2022-10-03T18:35:29;101456.56;;;28.64;46.22
3544;BME280;1786;52.870;9.578;2022-10-03T18:38:19;101452.88;;;28.14;47.17
3544;BME280;1786;52.870;9.578;2022-10-03T18:40:53;101456.50;;;28.00;47.28
3544;BME280;1786;52.870;9.578;2022-10-03T18:43:27;101457.59;;;27.76;47.19
3544;BME280;1786;52.870;9.578;2022-10-03T18:46:01;101455.34;;;27.94;47.09
3544;BME280;1786;52.870;9.578;2022-10-03T18:51:40;101458.56;;;28.19;46.57
3544;BME280;1786;52.870;9.578;2022-10-03T18:54:28;101454.09;;;28.12;46.45
3544;BME280;1786;52.870;9.578;2022-10-03T18:57:03;101455.41;;;28.16;46.67
3544;BME280;1786;52.870;9.578;2022-10-03T19:00:00;101454.53;;;28.30;46.13
3544;BME280;1786;52.870;9.578;2022-10-03T19:02:49;101454.84;;;28.20;46.22
3544;BME280;1786;52.870;9.578;2022-10-03T19:05:25;101451.84;;;28.15;45.86
3544;BME280;1786;52.870;9.578;2022-10-03T19:08:09;101447.44;;;28.14;46.16
3544;BME280;1786;52.870;9.578;2022-10-03T19:13:39;101442.91;;;28.00;45.63
3544;BME280;1786;52.870;9.578;2022-10-03T19:21:37;101435.31;;;27.95;45.51
3544;BME280;1786;52.870;9.578;2022-10-03T19:24:13;101435.31;;;27.80;45.85
3544;BME280;1786;52.870;9.578;2022-10-03T19:26:45;101440.25;;;27.77;46.32
3544;BME280;1786;52.870;9.578;2022-10-03T19:29:53;101445.75;;;27.62;45.92
3544;BME280;1786;52.870;9.578;2022-10-03T19:34:52;101450.13;;;27.48;46.03
3544;BME280;1786;52.870;9.578;2022-10-03T19:37:39;101437.94;;;27.44;46.19
3544;BME280;1786;52.870;9.578;2022-10-03T19:43:33;101443.41;;;27.29;46.09
3544;BME280;1786;52.870;9.578;2022-10-03T19:46:38;101450.34;;;27.09;45.91
3544;BME280;1786;52.870;9.578;2022-10-03T19:51:48;101446.75;;;26.93;46.64
3544;BME280;1786;52.870;9.578;2022-10-03T19:54:30;101454.25;;;26.91;46.46
3544;BME280;1786;52.870;9.578;2022-10-03T19:57:03;101444.22;;;26.77;46.93
3544;BME280;1786;52.870;9.578;2022-10-03T19:59:44;101443.09;;;26.71;47.14
3544;BME280;1786;52.870;9.578;2022-10-03T20:02:11;101441.75;;;26.67;46.76
3544;BME280;1786;52.870;9.578;2022-10-03T20:04:39;101441.00;;;26.73;46.66
3544;BME280;1786;52.870;9.578;2022-10-03T20:07:16;101451.13;;;26.80;46.55
3544;BME280;1786;52.870;9.578;2022-10-03T20:12:50;101449.81;;;26.75;46.79
3544;BME280;1786;52.870;9.578;2022-10-03T20:15:24;101441.97;;;26.81;47.27
3544;BME280;1786;52.870;9.578;2022-10-03T20:17:57;101441.66;;;26.75;47.42
3544;BME280;1786;52.870;9.578;2022-10-03T20:20:24;101447.53;;;26.64;47.16
3544;BME280;1786;52.870;9.578;2022-10-03T20:22:53;101443.22;;;26.47;47.66
3544;BME280;1786;52.870;9.578;2022-10-03T20:25:31;101453.78;;;26.42;48.28
3544;BME280;1786;52.870;9.578;2022-10-03T20:28:02;101444.06;;;26.47;48.32
3544;BME280;1786;52.870;9.578;2022-10-03T20:30:39;101445.53;;;26.58;47.98
3544;BME280;1786;52.870;9.578;2022-10-03T20:33:15;101447.53;;;26.64;47.50
3544;BME280;1786;52.870;9.578;2022-10-03T20:35:52;101440.41;;;26.63;47.96
3544;BME280;1786;52.870;9.578;2022-10-03T20:38:48;101436.31;;;26.44;48.04
3544;BME280;1786;52.870;9.578;2022-10-03T20:41:31;101436.78;;;26.48;47.73
3544;BME280;1786;52.870;9.578;2022-10-03T20:44:15;101432.63;;;26.37;48.14
3544;BME280;1786;52.870;9.578;2022-10-03T20:46:50;101442.38;;;26.23;47.71
3544;BME280;1786;52.870;9.578;2022-10-03T20:49:31;101437.28;;;26.28;47.80
3544;BME280;1786;52.870;9.578;2022-10-03T20:52:02;101436.09;;;26.23;47.35
3544;BME280;1786;52.870;9.578;2022-10-03T20:57:31;101438.47;;;25.95;47.75
3544;BME280;1786;52.870;9.578;2022-10-03T21:00:20;101435.59;;;25.96;47.40
3544;BME280;1786;52.870;9.578;2022-10-03T21:03:04;101439.31;;;25.95;47.48
3544;BME280;1786;52.870;9.578;2022-10-03T21:05:34;101431.91;;;25.89;48.16
3544;BME280;1786;52.870;9.578;2022-10-03T21:08:04;101428.91;;;25.67;47.94
3544;BME280;1786;52.870;9.578;2022-10-03T21:10:38;101428.78;;;25.61;48.64
3544;BME280;1786;52.870;9.578;2022-10-03T21:13:30;101423.03;;;25.64;48.36
3544;BME280;1786;52.870;9.578;2022-10-03T21:16:00;101430.13;;;25.65;48.30
3544;BME280;1786;52.870;9.578;2022-10-03T21:18:33;101410.53;;;25.63;48.75
3544;BME280;1786;52.870;9.578;2022-10-03T21:21:31;101410.66;;;25.69;48.50
3544;BME280;1786;52.870;9.578;2022-10-03T21:24:09;101421.69;;;25.60;48.31
3544;BME280;1786;52.870;9.578;2022-10-03T21:26:47;101424.06;;;25.63;48.18
3544;BME280;1786;52.870;9.578;2022-10-03T21:29:26;101419.47;;;25.63;47.55
3544;BME280;1786;52.870;9.578;2022-10-03T21:34:52;101414.28;;;25.54;48.27
3544;BME280;1786;52.870;9.578;2022-10-03T21:48:34;101428.91;;;25.28;48.00
3544;BME280;1786;52.870;9.578;2022-10-03T21:51:25;101416.91;;;25.31;48.01
3544;BME280;1786;52.870;9.578;2022-10-03T21:54:06;101421.31;;;25.23;48.29
3544;BME280;1786;52.870;9.578;2022-10-03T21:56:56;101408.94;;;25.29;48.21
3544;BME280;1786;52.870;9.578;2022-10-03T21:59:41;101409.78;;;25.30;48.13
3544;BME280;1786;52.870;9.578;2022-10-03T22:04:57;101405.75;;;25.25;48.08
3544;BME280;1786;52.870;9.578;2022-10-03T22:07:37;101405.06;;;25.15;48.48
3544;BME280;1786;52.870;9.578;2022-10-03T22:10:18;101400.84;;;25.21;48.42
3544;BME280;1786;52.870;9.578;2022-10-03T22:12:50;101405.91;;;25.24;48.18
3544;BME280;1786;52.870;9.578;2022-10-03T22:15:39;101409.28;;;25.26;48.14
3544;BME280;1786;52.870;9.578;2022-10-03T22:18:13;101408.94;;;25.29;48.16
3544;BME280;1786;52.870;9.578;2022-10-03T22:21:07;101402.34;;;25.32;48.18
3544;BME280;1786;52.870;9.578;2022-10-03T22:23:53;101408.25;;;25.35;48.48
3544;BME280;1786;52.870;9.578;2022-10-03T22:26:32;101402.66;;;25.37;48.49
3544;BME280;1786;52.870;9.578;2022-10-03T22:32:08;101399.09;;;25.36;48.40
3544;BME280;1786;52.870;9.578;2022-10-03T22:35:04;101391.31;;;25.41;48.65
3544;BME280;1786;52.870;9.578;2022-10-03T22:37:36;101391.84;;;25.37;48.77
3544;BME280;1786;52.870;9.578;2022-10-03T22:40:05;101388.31;;;25.28;49.21
3544;BME280;1786;52.870;9.578;2022-10-03T22:42:38;101386.94;;;25.40;48.73
3544;BME280;1786;52.870;9.578;2022-10-03T22:45:08;101389.00;;;25.30;49.05
3544;BME280;1786;52.870;9.578;2022-10-03T22:47:38;101390.19;;;25.19;49.20
3544;BME280;1786;52.870;9.578;2022-10-03T22:50:09;101390.38;;;25.01;49.51
3544;BME280;1786;52.870;9.578;2022-10-03T22:52:39;101386.28;;;25.22;49.48
3544;BME280;1786;52.870;9.578;2022-10-03T22:55:11;101392.88;;;25.36;49.32
3544;BME280;1786;52.870;9.578;2022-10-03T22:57:43;101392.97;;;25.42;49.25
3544;BME280;1786;52.870;9.578;2022-10-03T23:00:14;101384.91;;;25.34;49.17
3544;BME280;1786;52.870;9.578;2022-10-03T23:03:44;101387.25;;;25.45;48.76
3544;BME280;1786;52.870;9.578;2022-10-03T23:07:19;101396.78;;;25.64;48.41
3544;BME280;1786;52.870;9.578;2022-10-03T23:09:22;101389.81;;;25.70;47.69
3544;BME280;1786;52.870;9.578;2022-10-03T23:11:54;101393.59;;;25.61;47.84
3544;BME280;1786;52.870;9.578;2022-10-03T23:14:29;101385.50;;;25.61;47.84
3544;BME280;1786;52.870;9.578;2022-10-03T23:17:11;101383.25;;;25.64;47.97
3544;BME280;1786;52.870;9.578;2022-10-03T23:20:13;101389.69;;;25.63;47.87
3544;BME280;1786;52.870;9.578;2022-10-03T23:22:44;101384.50;;;25.54;47.72
3544;BME280;1786;52.870;9.578;2022-10-03T23:25:23;101387.50;;;25.28;48.26